Time;durP1;ratioP1;P1;durP2;ratioP2;P2;SDS_P1;SDS_P2;PMS_P1;PMS_P2;Temp;Humidity;BMP_temperature;BMP_pressure;BME280_temperature;BME280_humidity;BME280_pressure;Samples;Min_cycle;Max_cycle;Signal;HPM_P1;HPM_P2
2023/04/28 00:00:41;;;;;;;0.17;0.17;;;18.50;99.90;;;;;;4997935;28;20054;-92
2023/04/28 00:03:06;;;;;;;1.95;0.85;;;18.50;99.90;;;;;;4996980;28;20066;-92
2023/04/28 00:05:32;;;;;;;0.05;0.05;;;18.50;99.90;;;;;;4997016;28;20023;-92
2023/04/28 00:07:58;;;;;;;0.10;0.10;;;18.50;99.90;;;;;;4997158;28;20034;-93
2023/04/28 00:10:23;;;;;;;0.43;0.40;;;18.60;99.90;;;;;;4996846;28;20143;-92
2023/04/28 00:12:49;;;;;;;0.30;0.30;;;18.50;99.90;;;;;;4996517;28;20026;-92
2023/04/28 00:15:14;;;;;;;0.13;0.13;;;18.50;99.90;;;;;;4996893;28;20026;-92
2023/04/28 00:17:40;;;;;;;0.30;0.30;;;18.40;99.90;;;;;;4996921;28;20033;-92
2023/04/28 00:20:06;;;;;;;4.10;0.63;;;18.50;99.90;;;;;;4996568;28;20034;-92
2023/04/28 00:22:32;;;;;;;0.20;0.20;;;18.40;99.90;;;;;;4996922;28;20030;-92
2023/04/28 00:24:58;;;;;;;0.57;0.30;;;18.40;99.90;;;;;;4996616;28;20037;-92
2023/04/28 00:27:23;;;;;;;0.17;0.17;;;18.40;99.90;;;;;;4997172;28;20030;-92
2023/04/28 00:29:49;;;;;;;0.63;0.55;;;18.30;99.90;;;;;;4996187;28;20026;-93
2023/04/28 00:32:14;;;;;;;0.10;0.10;;;18.30;99.90;;;;;;4995266;28;20026;-93
2023/04/28 00:34:40;;;;;;;0.28;0.28;;;18.20;99.90;;;;;;4995513;28;20561;-92
2023/04/28 00:37:06;;;;;;;0.28;0.17;;;18.10;99.90;;;;;;4996472;28;20030;-92
2023/04/28 00:39:31;;;;;;;0.50;0.35;;;18.20;99.90;;;;;;4986750;28;20047;-91
2023/04/28 00:41:57;;;;;;;2.20;0.70;;;18.10;99.90;;;;;;4976419;28;20077;-92
2023/04/28 00:44:22;;;;;;;0.50;0.50;;;18.20;99.90;;;;;;4975727;28;20488;-92
2023/04/28 00:46:48;;;;;;;0.20;0.20;;;18.10;99.90;;;;;;4986605;28;20026;-92
2023/04/28 00:49:15;;;;;;;0.22;0.22;;;18.00;99.90;;;;;;4995752;28;20034;-92
2023/04/28 00:51:40;;;;;;;0.13;0.13;;;17.90;99.90;;;;;;4995717;28;20117;-93
2023/04/28 00:54:07;;;;;;;0.10;0.10;;;17.90;99.90;;;;;;4994374;28;20121;-93
2023/04/28 00:56:33;;;;;;;0.10;0.10;;;17.80;99.90;;;;;;4996285;28;20041;-92
2023/04/28 00:58:59;;;;;;;0.68;0.68;;;17.80;99.90;;;;;;4994542;28;20034;-93
2023/04/28 01:01:24;;;;;;;0.00;0.00;;;17.80;99.90;;;;;;4996032;28;20042;-92
2023/04/28 01:03:50;;;;;;;0.08;0.08;;;17.80;99.90;;;;;;4995486;28;20084;-92
2023/04/28 01:06:16;;;;;;;0.10;0.10;;;17.80;99.90;;;;;;4994685;28;20030;-92
2023/04/28 01:08:42;;;;;;;0.38;0.38;;;17.80;99.90;;;;;;4994754;28;20031;-92
2023/04/28 01:11:12;;;;;;;0.00;0.00;;;17.70;99.90;;;;;;4993954;28;20026;-92
2023/04/28 01:13:38;;;;;;;0.10;0.10;;;17.70;99.90;;;;;;4995903;28;20030;-92
2023/04/28 01:16:06;;;;;;;0.13;0.13;;;17.70;99.90;;;;;;4996680;28;20097;-92
2023/04/28 01:18:32;;;;;;;0.13;0.13;;;17.70;99.90;;;;;;4995705;28;20042;-92
2023/04/28 01:20:58;;;;;;;0.10;0.10;;;17.70;99.90;;;;;;4995517;28;20057;-92
2023/04/28 01:23:23;;;;;;;0.17;0.17;;;17.60;99.90;;;;;;4995757;28;20490;-91
2023/04/28 01:25:49;;;;;;;0.10;0.10;;;17.60;99.90;;;;;;4995414;28;20084;-92
2023/04/28 01:28:15;;;;;;;0.00;0.00;;;17.50;99.90;;;;;;4995475;28;20376;-92
2023/04/28 01:30:40;;;;;;;1.02;0.55;;;17.50;99.90;;;;;;4994088;28;20490;-92
2023/04/28 01:33:06;;;;;;;0.25;0.25;;;17.50;99.90;;;;;;4994207;28;20124;-91
2023/04/28 01:35:32;;;;;;;0.10;0.10;;;17.50;99.90;;;;;;4995583;28;20476;-91
2023/04/28 01:37:57;;;;;;;0.10;0.10;;;17.40;99.90;;;;;;4994935;28;20046;-92
2023/04/28 01:40:23;;;;;;;0.10;0.10;;;17.40;99.90;;;;;;4979573;28;20062;-91
2023/04/28 01:42:49;;;;;;;0.20;0.20;;;17.30;99.90;;;;;;4975617;28;20035;-92
2023/04/28 01:45:15;;;;;;;0.20;0.20;;;17.20;99.90;;;;;;4975947;28;20015;-92
2023/04/28 01:47:41;;;;;;;0.20;0.20;;;17.20;99.90;;;;;;4992476;28;20505;-93
2023/04/28 01:50:07;;;;;;;0.38;0.38;;;17.20;99.90;;;;;;4994631;28;20170;-92
2023/04/28 01:52:32;;;;;;;0.10;0.10;;;17.20;99.90;;;;;;4993462;28;20030;-92
2023/04/28 01:54:58;;;;;;;0.20;0.20;;;17.10;99.90;;;;;;4993419;28;20046;-92
2023/04/28 01:57:24;;;;;;;0.20;0.20;;;17.20;99.90;;;;;;4995229;28;20034;-92
2023/04/28 01:59:49;;;;;;;1.13;0.47;;;17.20;99.90;;;;;;4994613;28;20038;-92
2023/04/28 02:02:15;;;;;;;0.20;0.20;;;17.20;99.90;;;;;;4994975;28;20590;-92
2023/04/28 02:04:41;;;;;;;0.35;0.25;;;17.30;99.90;;;;;;4994775;28;20121;-92
2023/04/28 02:07:06;;;;;;;0.55;0.47;;;17.20;99.90;;;;;;4994533;28;20487;-91
2023/04/28 02:09:32;;;;;;;0.20;0.10;;;17.20;99.90;;;;;;4994818;28;20026;-92
2023/04/28 02:12:01;;;;;;;0.20;0.20;;;17.20;99.90;;;;;;4994814;28;20449;-93
2023/04/28 02:14:27;;;;;;;0.75;0.30;;;17.20;99.90;;;;;;4994414;28;20035;-90
2023/04/28 02:16:53;;;;;;;0.22;0.22;;;17.20;99.90;;;;;;4994714;28;20057;-91
2023/04/28 02:19:19;;;;;;;0.30;0.30;;;17.20;99.90;;;;;;4994383;28;20529;-92
2023/04/28 02:21:44;;;;;;;0.40;0.30;;;17.20;99.90;;;;;;4994295;28;20026;-92
2023/04/28 02:24:10;;;;;;;0.00;0.00;;;17.10;99.90;;;;;;4993722;28;20117;-92
2023/04/28 02:26:36;;;;;;;0.65;0.65;;;17.10;99.90;;;;;;4994244;28;20106;-92
2023/04/28 02:29:03;;;;;;;0.30;0.25;;;17.10;99.90;;;;;;4994612;28;20037;-92
2023/04/28 02:31:29;;;;;;;1.35;0.30;;;17.10;99.90;;;;;;4994125;28;20029;-92
2023/04/28 02:33:54;;;;;;;0.73;0.38;;;17.10;99.90;;;;;;4993930;28;20034;-92
2023/04/28 02:36:20;;;;;;;0.10;0.10;;;17.10;99.90;;;;;;4994188;28;20022;-91
2023/04/28 02:38:46;;;;;;;0.20;0.20;;;17.20;99.90;;;;;;4991324;28;20046;-92
2023/04/28 02:41:13;;;;;;;0.30;0.25;;;17.20;99.90;;;;;;4973846;28;20053;-92
2023/04/28 02:43:40;;;;;;;0.10;0.10;;;17.20;99.90;;;;;;4974676;28;20090;-92
2023/04/28 02:46:06;;;;;;;0.17;0.13;;;17.20;99.90;;;;;;4978987;28;20022;-92
2023/04/28 02:48:34;;;;;;;0.45;0.45;;;17.30;99.90;;;;;;4994943;28;20026;-92
2023/04/28 02:51:00;;;;;;;0.15;0.15;;;17.30;99.90;;;;;;4994109;28;20474;-93
2023/04/28 02:53:25;;;;;;;0.05;0.05;;;17.30;99.90;;;;;;4992352;28;20053;-92
2023/04/28 02:55:51;;;;;;;0.00;0.00;;;17.40;99.90;;;;;;4994068;28;20080;-92
2023/04/28 02:58:17;;;;;;;0.05;0.05;;;17.40;99.90;;;;;;4993598;28;20502;-92
2023/04/28 03:00:43;;;;;;;0.10;0.10;;;17.40;99.90;;;;;;4993916;28;20019;-92
2023/04/28 03:03:08;;;;;;;0.10;0.10;;;17.30;99.90;;;;;;4993985;28;20487;-91
2023/04/28 03:05:35;;;;;;;0.00;0.00;;;17.40;99.90;;;;;;4993771;28;20022;-93
2023/04/28 03:08:00;;;;;;;0.10;0.10;;;17.40;99.90;;;;;;4993251;28;20165;-92
2023/04/28 03:10:26;;;;;;;0.10;0.10;;;17.50;99.90;;;;;;4993617;28;20084;-92
2023/04/28 03:12:52;;;;;;;0.10;0.10;;;17.60;99.90;;;;;;4994026;28;20495;-92
2023/04/28 03:15:18;;;;;;;0.10;0.10;;;17.70;99.90;;;;;;4993803;28;20108;-92
2023/04/28 03:17:43;;;;;;;0.00;0.00;;;17.60;99.90;;;;;;4993665;28;20030;-92
2023/04/28 03:20:09;;;;;;;0.10;0.10;;;17.50;99.90;;;;;;4993594;28;20077;-92
2023/04/28 03:22:35;;;;;;;0.10;0.10;;;17.30;99.90;;;;;;4993567;28;20498;-91
2023/04/28 03:25:01;;;;;;;0.65;0.65;;;17.20;99.90;;;;;;4994382;28;20105;-92
2023/04/28 03:27:27;;;;;;;0.10;0.10;;;17.10;99.90;;;;;;4992305;28;20030;-91
2023/04/28 03:29:53;;;;;;;0.63;0.52;;;17.20;99.90;;;;;;4992391;28;20085;-93
2023/04/28 03:32:18;;;;;;;0.08;0.08;;;17.30;99.90;;;;;;4993682;28;20049;-91
2023/04/28 03:34:44;;;;;;;0.10;0.10;;;17.20;99.90;;;;;;4992197;28;20026;-92
2023/04/28 03:37:10;;;;;;;0.30;0.30;;;17.10;99.90;;;;;;4993234;28;20049;-92
2023/04/28 03:39:36;;;;;;;0.10;0.10;;;17.10;99.90;;;;;;4984384;28;20137;-92
2023/04/28 03:42:01;;;;;;;0.20;0.20;;;17.00;99.90;;;;;;4974146;28;20086;-92
2023/04/28 03:44:27;;;;;;;0.52;0.35;;;16.80;99.90;;;;;;4974387;28;20026;-92
2023/04/28 03:46:53;;;;;;;0.28;0.25;;;16.80;99.90;;;;;;4985029;28;20442;-92
2023/04/28 03:49:18;;;;;;;0.25;0.25;;;16.80;99.90;;;;;;4993562;28;20030;-92
2023/04/28 03:51:44;;;;;;;0.10;0.10;;;16.80;99.90;;;;;;4992886;28;20475;-92
2023/04/28 03:54:10;;;;;;;0.20;0.20;;;16.70;99.90;;;;;;4993414;28;20029;-92
2023/04/28 03:56:35;;;;;;;0.13;0.13;;;16.70;99.90;;;;;;4993596;28;20037;-92
2023/04/28 03:59:01;;;;;;;0.00;0.00;;;16.70;99.90;;;;;;4993202;28;20042;-91
2023/04/28 04:01:27;;;;;;;0.20;0.20;;;16.60;99.90;;;;;;4993359;28;20022;-91
2023/04/28 04:03:52;;;;;;;0.17;0.17;;;16.50;99.90;;;;;;4991897;28;20061;-90
2023/04/28 04:06:18;;;;;;;0.35;0.35;;;16.60;99.90;;;;;;4993223;28;20030;-91
2023/04/28 04:08:45;;;;;;;0.15;0.15;;;16.50;99.90;;;;;;4992144;28;20034;-91
2023/04/28 04:11:10;;;;;;;0.30;0.22;;;16.50;99.90;;;;;;4992026;28;20479;-91
2023/04/28 04:13:36;;;;;;;0.25;0.25;;;16.50;99.90;;;;;;4992205;28;20045;-91
2023/04/28 04:16:02;;;;;;;0.10;0.10;;;16.60;99.90;;;;;;4996969;28;20046;-91
2023/04/28 04:18:27;;;;;;;0.00;0.00;;;16.50;99.90;;;;;;4996373;28;20455;-91
2023/04/28 04:20:54;;;;;;;0.20;0.20;;;16.40;99.90;;;;;;4996238;28;20029;-92
2023/04/28 04:23:21;;;;;;;0.22;0.22;;;16.40;99.90;;;;;;4996509;28;20031;-92
2023/04/28 04:25:47;;;;;;;0.10;0.10;;;16.40;99.90;;;;;;4996314;28;20058;-92
2023/04/28 04:28:12;;;;;;;0.10;0.10;;;16.40;99.90;;;;;;4996405;28;20030;-91
2023/04/28 04:30:38;;;;;;;0.22;0.22;;;16.40;99.90;;;;;;4995607;28;20533;-92
2023/04/28 04:33:04;;;;;;;0.45;0.45;;;16.40;99.90;;;;;;4996634;28;20525;-92
2023/04/28 04:35:30;;;;;;;0.65;0.30;;;16.30;99.90;;;;;;4995317;28;20065;-91
2023/04/28 04:37:55;;;;;;;0.00;0.00;;;16.40;99.90;;;;;;4995751;28;20034;-91
2023/04/28 04:40:21;;;;;;;0.47;0.43;;;16.30;99.90;;;;;;4980226;28;20058;-90
2023/04/28 04:42:46;;;;;;;0.20;0.20;;;16.30;99.90;;;;;;4976711;28;20086;-94
2023/04/28 04:45:12;;;;;;;1.45;0.47;;;16.30;99.90;;;;;;4976091;28;20031;-91
2023/04/28 04:47:38;;;;;;;0.40;0.20;;;16.30;99.90;;;;;;4992966;28;20018;-93
2023/04/28 04:50:05;;;;;;;0.15;0.15;;;16.30;99.90;;;;;;4994965;28;20743;-92
2023/04/28 04:52:30;;;;;;;0.10;0.10;;;16.30;99.90;;;;;;4995099;28;20150;-91
2023/04/28 04:54:56;;;;;;;0.20;0.20;;;16.30;99.90;;;;;;4994623;28;20117;-92
2023/04/28 04:57:22;;;;;;;0.17;0.17;;;16.20;99.90;;;;;;4995323;28;20101;-93
2023/04/28 04:59:47;;;;;;;0.30;0.30;;;16.30;99.90;;;;;;4995742;28;20031;-93
2023/04/28 05:02:13;;;;;;;0.28;0.28;;;16.30;99.90;;;;;;4995470;28;20479;-91
2023/04/28 05:04:38;;;;;;;0.15;0.13;;;16.20;99.90;;;;;;4995495;28;20418;-91
2023/04/28 05:07:04;;;;;;;0.10;0.10;;;16.30;99.90;;;;;;4995442;28;20145;-91
2023/04/28 05:09:30;;;;;;;0.15;0.15;;;16.30;99.90;;;;;;4995818;28;20034;-91
2023/04/28 05:11:56;;;;;;;0.40;0.40;;;16.30;99.90;;;;;;4995351;28;20030;-92
2023/04/28 05:14:22;;;;;;;0.00;0.00;;;16.40;99.90;;;;;;4995292;28;20038;-91
2023/04/28 05:16:48;;;;;;;0.15;0.15;;;16.40;99.90;;;;;;4995058;28;20027;-91
2023/04/28 05:19:14;;;;;;;0.10;0.10;;;16.40;99.90;;;;;;4995433;28;20101;-91
2023/04/28 05:21:40;;;;;;;0.20;0.20;;;16.50;99.90;;;;;;4995027;28;20030;-91
2023/04/28 05:24:05;;;;;;;0.20;0.20;;;16.60;99.90;;;;;;4995158;28;20026;-91
2023/04/28 05:26:31;;;;;;;0.25;0.25;;;16.60;99.90;;;;;;4993723;28;20435;-91
2023/04/28 05:28:57;;;;;;;0.20;0.20;;;16.60;99.90;;;;;;4995434;28;20545;-91
2023/04/28 05:31:22;;;;;;;0.25;0.25;;;16.60;99.90;;;;;;4995582;28;20033;-90
2023/04/28 05:33:48;;;;;;;0.30;0.30;;;16.70;99.90;;;;;;4995046;28;20094;-91
2023/04/28 05:36:15;;;;;;;0.30;0.30;;;16.70;99.90;;;;;;4995644;28;20143;-91
2023/04/28 05:38:42;;;;;;;1.20;1.00;;;16.70;99.90;;;;;;4992500;28;20035;-92
2023/04/28 05:41:08;;;;;;;0.15;0.15;;;16.80;99.90;;;;;;4975808;28;20408;-92
2023/04/28 05:43:33;;;;;;;0.10;0.10;;;16.80;99.90;;;;;;4974167;28;20031;-91
2023/04/28 05:45:59;;;;;;;3.42;0.30;;;16.80;99.90;;;;;;4978302;28;20025;-92
2023/04/28 05:48:25;;;;;;;0.00;0.00;;;16.80;99.90;;;;;;4995250;28;20030;-91
2023/04/28 05:50:51;;;;;;;0.30;0.30;;;16.80;99.90;;;;;;4994703;28;20022;-91
2023/04/28 05:53:16;;;;;;;0.10;0.10;;;16.90;99.90;;;;;;4994552;28;20509;-91
2023/04/28 05:55:42;;;;;;;0.17;0.13;;;16.90;99.90;;;;;;4994599;28;20442;-91
2023/04/28 05:58:08;;;;;;;1.17;0.40;;;17.00;99.90;;;;;;4994515;28;20034;-91
2023/04/28 06:00:34;;;;;;;0.15;0.15;;;17.10;99.90;;;;;;4993862;28;20022;-91
2023/04/28 06:03:00;;;;;;;1.73;0.93;;;17.10;99.90;;;;;;4994566;28;20026;-91
2023/04/28 06:05:26;;;;;;;0.20;0.20;;;17.20;99.90;;;;;;4994383;28;20811;-91
2023/04/28 06:07:52;;;;;;;0.10;0.10;;;17.20;99.90;;;;;;4995025;28;20110;-91
2023/04/28 06:10:19;;;;;;;0.70;0.65;;;17.30;99.90;;;;;;4994072;28;20026;-91
2023/04/28 06:12:44;;;;;;;0.10;0.10;;;17.30;99.90;;;;;;4994315;28;20030;-91
2023/04/28 06:15:10;;;;;;;0.10;0.10;;;17.40;99.90;;;;;;4981277;28;20034;-91
2023/04/28 06:17:38;;;;;;;0.10;0.10;;;17.50;99.90;;;;;;4974482;28;20034;-91
2023/04/28 06:20:05;;;;;;;0.35;0.20;;;17.40;99.90;;;;;;4974661;28;20038;-91
2023/04/28 06:22:31;;;;;;;0.45;0.38;;;17.50;99.90;;;;;;4974300;28;20023;-91
2023/04/28 06:24:56;;;;;;;0.25;0.25;;;17.40;99.90;;;;;;4974625;28;20043;-92
2023/04/28 06:27:22;;;;;;;0.50;0.28;;;17.50;99.90;;;;;;4974854;28;20018;-92
2023/04/28 06:29:48;;;;;;;0.10;0.10;;;17.60;99.90;;;;;;4975097;28;20068;-83
2023/04/28 06:32:13;;;;;;;0.20;0.20;;;17.60;99.90;;;;;;4976580;28;20487;-83
2023/04/28 06:34:39;;;;;;;0.15;0.15;;;17.70;99.90;;;;;;4976673;28;20034;-81
2023/04/28 06:37:05;;;;;;;0.20;0.20;;;17.70;99.90;;;;;;4978727;28;20082;-82
2023/04/28 06:39:30;;;;;;;0.10;0.10;;;17.60;99.90;;;;;;4973649;28;20082;-81
2023/04/28 06:41:56;;;;;;;0.10;0.10;;;17.70;99.90;;;;;;4973606;28;20117;-81
2023/04/28 06:44:22;;;;;;;1.00;0.75;;;17.70;99.90;;;;;;4973945;28;20141;-81
2023/04/28 06:46:47;;;;;;;0.45;0.45;;;17.70;99.90;;;;;;4981201;28;20487;-81
2023/04/28 06:49:13;;;;;;;0.30;0.30;;;17.70;99.90;;;;;;4973535;28;20034;-82
2023/04/28 06:51:39;;;;;;;0.10;0.10;;;17.70;99.90;;;;;;4973380;28;20033;-82
2023/04/28 06:54:04;;;;;;;0.22;0.22;;;17.80;99.90;;;;;;4972888;28;20027;-82
2023/04/28 06:56:30;;;;;;;0.13;0.13;;;17.90;99.90;;;;;;4973414;28;20106;-81
2023/04/28 06:58:56;;;;;;;0.30;0.30;;;17.90;99.90;;;;;;4972989;28;20077;-81
2023/04/28 07:01:22;;;;;;;0.22;0.22;;;17.90;99.90;;;;;;4973735;28;20065;-81
2023/04/28 07:03:47;;;;;;;0.40;0.40;;;18.00;99.90;;;;;;4973502;28;20494;-81
2023/04/28 07:06:13;;;;;;;0.00;0.00;;;18.10;99.90;;;;;;4973566;28;20067;-81
2023/04/28 07:08:39;;;;;;;0.10;0.10;;;18.30;99.90;;;;;;4973280;28;20044;-81
2023/04/28 07:11:05;;;;;;;0.10;0.10;;;18.70;99.90;;;;;;4973724;28;20023;-81
2023/04/28 07:13:31;;;;;;;0.10;0.10;;;18.70;99.90;;;;;;4972999;28;20498;-81
2023/04/28 07:15:57;;;;;;;0.15;0.13;;;18.70;99.90;;;;;;4973252;28;20023;-81
2023/04/28 07:18:22;;;;;;;0.13;0.10;;;18.80;99.90;;;;;;4973211;28;20043;-81
2023/04/28 07:20:48;;;;;;;0.38;0.38;;;18.70;99.90;;;;;;4973729;28;20111;-81
2023/04/28 07:23:14;;;;;;;0.10;0.10;;;18.70;99.90;;;;;;4973243;28;20034;-81
2023/04/28 07:25:40;;;;;;;0.10;0.10;;;18.70;99.90;;;;;;4973246;28;20053;-81
2023/04/28 07:28:06;;;;;;;0.00;0.00;;;18.70;99.90;;;;;;4973162;28;20065;-81
2023/04/28 07:30:33;;;;;;;0.17;0.17;;;18.70;99.90;;;;;;4973234;28;20527;-81
2023/04/28 07:32:58;;;;;;;0.17;0.17;;;18.90;99.90;;;;;;4973287;28;20101;-81
2023/04/28 07:35:24;;;;;;;0.35;0.30;;;19.00;99.90;;;;;;4973136;28;20110;-81
2023/04/28 07:37:51;;;;;;;0.30;0.30;;;19.10;99.90;;;;;;4972990;28;20134;-81
2023/04/28 07:40:17;;;;;;;0.30;0.20;;;18.90;99.90;;;;;;4972874;28;20427;-81
2023/04/28 07:42:42;;;;;;;0.30;0.30;;;19.10;99.90;;;;;;4972899;28;20102;-81
2023/04/28 07:45:08;;;;;;;0.10;0.10;;;19.20;99.90;;;;;;4973484;28;20106;-81
2023/04/28 07:47:35;;;;;;;0.08;0.08;;;19.40;99.90;;;;;;4989163;28;20026;-81
2023/04/28 07:50:05;;;;;;;0.15;0.15;;;19.40;99.90;;;;;;4994836;28;20036;-81
2023/04/28 07:52:31;;;;;;;0.10;0.10;;;19.50;99.90;;;;;;4996974;28;20538;-80
2023/04/28 07:54:58;;;;;;;0.13;0.13;;;19.50;99.90;;;;;;4996773;28;20042;-81
2023/04/28 07:57:24;;;;;;;0.00;0.00;;;19.50;99.90;;;;;;4995611;28;20038;-80
2023/04/28 07:59:50;;;;;;;0.40;0.20;;;19.40;99.90;;;;;;4996705;28;20038;-81
2023/04/28 08:02:16;;;;;;;0.17;0.17;;;19.60;99.90;;;;;;4996273;28;20029;-81
2023/04/28 08:04:41;;;;;;;0.20;0.20;;;19.70;99.90;;;;;;4996080;28;20542;-81
2023/04/28 08:07:08;;;;;;;0.10;0.10;;;19.80;99.90;;;;;;4996401;28;20486;-81
2023/04/28 08:09:34;;;;;;;0.20;0.20;;;20.00;99.90;;;;;;4995749;28;20023;-81
2023/04/28 08:12:00;;;;;;;0.00;0.00;;;20.30;99.90;;;;;;4995075;28;20077;-81
2023/04/28 08:14:27;;;;;;;0.00;0.00;;;20.60;99.90;;;;;;4995849;28;20037;-81
2023/04/28 08:16:53;;;;;;;1.25;0.38;;;20.60;99.90;;;;;;4996151;28;20387;-81
2023/04/28 08:19:19;;;;;;;0.10;0.10;;;20.70;99.90;;;;;;4996536;28;20038;-81
2023/04/28 08:21:45;;;;;;;1.45;0.50;;;20.50;99.90;;;;;;4996136;28;20037;-81
2023/04/28 08:24:10;;;;;;;0.00;0.00;;;21.00;99.90;;;;;;4995746;28;20022;-81
2023/04/28 08:26:37;;;;;;;0.20;0.15;;;21.10;99.90;;;;;;4995495;28;20034;-81
2023/04/28 08:29:03;;;;;;;0.30;0.30;;;21.00;99.90;;;;;;4995531;28;20037;-81
2023/04/28 08:31:29;;;;;;;0.20;0.20;;;21.20;99.90;;;;;;4995540;28;20022;-81
2023/04/28 08:33:54;;;;;;;0.00;0.00;;;21.50;99.90;;;;;;4995606;28;20033;-81
2023/04/28 08:36:20;;;;;;;0.00;0.00;;;21.40;99.90;;;;;;4995521;28;20042;-81
2023/04/28 08:38:46;;;;;;;0.03;0.03;;;21.40;99.90;;;;;;4992597;28;20031;-81
2023/04/28 08:41:15;;;;;;;0.63;0.50;;;21.20;99.90;;;;;;4974663;28;20522;-81
2023/04/28 08:43:42;;;;;;;0.60;0.20;;;21.10;99.90;;;;;;4973522;28;20440;-81
2023/04/28 08:46:08;;;;;;;0.25;0.08;;;21.00;99.90;;;;;;4977162;28;20026;-81
2023/04/28 08:48:44;;;;;;;0.00;0.00;;;21.20;99.90;;;;;;4975389;28;20525;-81
2023/04/28 08:51:15;;;;;;;0.47;0.10;;;21.50;99.90;;;;;;4975520;28;20070;-81
2023/04/28 08:53:45;;;;;;;0.68;0.43;;;21.60;99.90;;;;;;4976476;28;20041;-83
2023/04/28 08:56:15;;;;;;;0.08;0.08;;;21.60;99.90;;;;;;4975077;28;20117;-81
2023/04/28 08:58:41;;;;;;;0.10;0.10;;;21.40;99.90;;;;;;4975374;28;20046;-81
2023/04/28 09:01:08;;;;;;;0.20;0.20;;;21.50;99.90;;;;;;4974765;28;20035;-81
2023/04/28 09:03:33;;;;;;;0.10;0.10;;;21.70;99.90;;;;;;4975616;28;20086;-81
2023/04/28 09:06:01;;;;;;;0.10;0.10;;;21.80;99.90;;;;;;4974914;28;20031;-82
2023/04/28 09:08:27;;;;;;;0.15;0.15;;;21.90;99.90;;;;;;4975267;28;20043;-82
2023/04/28 09:11:09;;;;;;;0.15;0.15;;;21.50;99.90;;;;;;4994983;28;20412;-82
2023/04/28 09:13:36;;;;;;;0.10;0.10;;;21.60;99.90;;;;;;4956441;29;20034;-82
2023/04/28 09:16:02;;;;;;;0.22;0.17;;;21.60;99.90;;;;;;4954726;29;20118;-82
2023/04/28 09:18:32;;;;;;;0.25;0.25;;;21.40;99.90;;;;;;4980986;28;20038;-81
2023/04/28 09:21:08;;;;;;;0.17;0.17;;;21.60;99.90;;;;;;4975001;28;20064;-81
2023/04/28 09:23:47;;;;;;;0.00;0.00;;;21.20;99.90;;;;;;4974211;28;20122;-82
2023/04/28 09:26:13;;;;;;;0.03;0.03;;;21.40;99.90;;;;;;4975879;28;20106;-82
2023/04/28 09:28:39;;;;;;;0.03;0.03;;;21.40;99.90;;;;;;4974956;28;20058;-81
2023/04/28 09:31:05;;;;;;;0.17;0.15;;;21.60;99.90;;;;;;4975395;28;20023;-81
2023/04/28 09:33:30;;;;;;;4.95;0.20;;;21.60;99.90;;;;;;4974299;28;20458;-81
2023/04/28 09:35:56;;;;;;;0.10;0.10;;;21.30;99.90;;;;;;4974845;28;20034;-81
2023/04/28 09:38:22;;;;;;;0.20;0.20;;;21.40;99.90;;;;;;4973793;28;20038;-82
2023/04/28 09:40:57;;;;;;;0.10;0.10;;;21.30;99.90;;;;;;4973941;28;20046;-81
2023/04/28 09:43:24;;;;;;;2.72;0.80;;;21.20;99.90;;;;;;4974372;28;20043;-81
2023/04/28 09:45:50;;;;;;;0.05;0.05;;;21.10;99.90;;;;;;4976824;28;20027;-81
2023/04/28 09:48:16;;;;;;;1.20;0.75;;;21.30;99.90;;;;;;4984581;28;20125;-82
2023/04/28 09:50:41;;;;;;;0.10;0.10;;;21.70;99.90;;;;;;4974655;28;20031;-82
2023/04/28 09:53:11;;;;;;;0.20;0.20;;;21.90;99.90;;;;;;4973798;28;20057;-82
2023/04/28 09:55:42;;;;;;;0.47;0.10;;;22.00;99.90;;;;;;4974407;28;20034;-85
2023/04/28 09:58:10;;;;;;;0.55;0.55;;;21.90;99.90;;;;;;4974402;28;20031;-81
2023/04/28 10:00:39;;;;;;;0.17;0.17;;;22.10;99.90;;;;;;4973627;28;20026;-82
2023/04/28 10:03:06;;;;;;;0.10;0.10;;;22.30;99.90;;;;;;4973223;28;20025;-82
2023/04/28 10:05:33;;;;;;;0.10;0.10;;;22.40;99.90;;;;;;4974358;28;20026;-82
2023/04/28 10:08:01;;;;;;;0.35;0.35;;;22.50;99.90;;;;;;4972773;28;20038;-82
2023/04/28 10:10:31;;;;;;;0.43;0.43;;;22.30;99.90;;;;;;4974004;28;20369;-82
2023/04/28 10:12:56;;;;;;;0.20;0.10;;;22.00;99.90;;;;;;4973000;28;20035;-80
2023/04/28 10:15:22;;;;;;;0.00;0.00;;;22.00;99.90;;;;;;4974483;28;20027;-80
2023/04/28 10:17:50;;;;;;;0.00;0.00;;;21.90;99.90;;;;;;4974439;28;20799;-83
2023/04/28 10:20:16;;;;;;;0.20;0.20;;;22.10;99.90;;;;;;4972931;28;20082;-88
2023/04/28 10:23:19;;;;;;;0.17;0.17;;;22.00;99.90;;;;;;4973567;28;20629;-81
2023/04/28 10:25:48;;;;;;;0.40;0.20;;;22.30;99.90;;;;;;4974118;28;20149;-81
2023/04/28 10:28:15;;;;;;;0.28;0.28;;;22.70;99.90;;;;;;4973128;28;20027;-81
2023/04/28 10:30:41;;;;;;;0.10;0.10;;;22.90;99.90;;;;;;4954798;29;20531;-81
2023/04/28 10:33:12;;;;;;;0.20;0.20;;;23.10;99.90;;;;;;4971179;28;20121;-80
2023/04/28 10:35:39;;;;;;;0.20;0.20;;;23.20;99.90;;;;;;4973661;28;20030;-81
2023/04/28 10:38:08;;;;;;;0.20;0.20;;;23.20;99.90;;;;;;4973255;28;20035;-81
2023/04/28 10:40:35;;;;;;;0.10;0.10;;;23.20;99.90;;;;;;4974178;28;20058;-81
2023/04/28 10:43:02;;;;;;;0.20;0.20;;;23.20;99.90;;;;;;4974128;28;20495;-81
2023/04/28 10:45:49;;;;;;;0.35;0.25;;;23.40;99.90;;;;;;4973784;28;20030;-81
2023/04/28 10:48:15;;;;;;;0.20;0.20;;;23.30;99.90;;;;;;4953124;29;20395;-81
2023/04/28 10:51:06;;;;;;;0.25;0.05;;;23.50;99.90;;;;;;4954398;28;20030;-80
2023/04/28 10:53:42;;;;;;;0.47;0.47;;;23.80;99.90;;;;;;4954373;28;20031;-81
2023/04/28 10:56:17;;;;;;;0.00;0.00;;;23.40;99.90;;;;;;4954380;28;20030;-81
2023/04/28 10:58:53;;;;;;;0.00;0.00;;;23.50;99.90;;;;;;4954593;28;20039;-81
2023/04/28 11:01:23;;;;;;;0.30;0.30;;;23.80;99.90;;;;;;4954258;29;20446;-81
2023/04/28 11:04:24;;;;;;;0.10;0.10;;;23.70;99.90;;;;;;4954102;28;20041;-81
2023/04/28 11:07:06;;;;;;;0.28;0.28;;;23.70;99.90;;;;;;4952652;28;20590;-81
2023/04/28 11:09:32;;;;;;;0.13;0.13;;;23.90;99.90;;;;;;4954164;29;20027;-81
2023/04/28 11:12:04;;;;;;;0.17;0.17;;;24.40;99.90;;;;;;4954063;29;20053;-81
2023/04/28 11:14:33;;;;;;;0.20;0.20;;;25.20;99.90;;;;;;4954459;28;20414;-81
2023/04/28 11:17:03;;;;;;;0.00;0.00;;;25.30;99.90;;;;;;4954127;29;20380;-81
2023/04/28 11:19:30;;;;;;;0.20;0.20;;;25.00;99.90;;;;;;4953635;29;20066;-81
2023/04/28 11:21:57;;;;;;;0.00;0.00;;;24.90;99.90;;;;;;4954091;28;20031;-80
2023/04/28 11:24:30;;;;;;;0.15;0.15;;;25.40;99.90;;;;;;4957184;28;20128;-81
2023/04/28 11:26:57;;;;;;;0.10;0.10;;;25.80;99.90;;;;;;4958470;29;20027;-81
2023/04/28 11:29:34;;;;;;;0.00;0.00;;;25.80;99.90;;;;;;4957932;28;20479;-81
2023/04/28 11:32:00;;;;;;;0.20;0.20;;;26.10;99.90;;;;;;4958591;28;20023;-81
2023/04/28 11:34:25;;;;;;;0.20;0.15;;;26.20;99.90;;;;;;4975824;28;20034;-81
2023/04/28 11:36:51;;;;;;;0.00;0.00;;;25.90;99.90;;;;;;4977100;28;20027;-81
2023/04/28 11:39:30;;;;;;;0.20;0.20;;;26.60;99.90;;;;;;4976574;28;20523;-81
2023/04/28 11:41:56;;;;;;;0.30;0.10;;;26.80;99.90;;;;;;4976777;28;20080;-81
2023/04/28 11:44:27;;;;;;;0.10;0.10;;;27.60;99.90;;;;;;4977056;28;20031;-81
2023/04/28 11:46:56;;;;;;;0.17;0.17;;;27.30;99.90;;;;;;4987293;28;20048;-81
2023/04/28 11:49:29;;;;;;;0.10;0.10;;;27.20;99.90;;;;;;4995698;28;20025;-81
2023/04/28 11:52:05;;;;;;;0.22;0.22;;;27.60;99.90;;;;;;4980648;28;20551;-81
2023/04/28 11:54:31;;;;;;;0.55;0.40;;;27.50;99.90;;;;;;4976880;28;20382;-81
2023/04/28 11:56:58;;;;;;;0.20;0.20;;;27.10;99.90;;;;;;4976779;28;20508;-80
2023/04/28 11:59:26;;;;;;;0.10;0.10;;;27.00;99.90;;;;;;4976550;28;20042;-80
2023/04/28 12:01:54;;;;;;;0.05;0.05;;;27.00;99.90;;;;;;4976669;28;20376;-81
2023/04/28 12:04:30;;;;;;;0.68;0.35;;;27.40;99.90;;;;;;4976281;28;20023;-81
2023/04/28 12:07:11;;;;;;;0.10;0.10;;;28.10;99.90;;;;;;4976731;28;20027;-80
2023/04/28 12:09:39;;;;;;;0.20;0.20;;;28.20;99.90;;;;;;4976630;28;20030;-80
2023/04/28 12:12:10;;;;;;;0.00;0.00;;;28.40;99.90;;;;;;4976518;28;20610;-80
2023/04/28 12:15:04;;;;;;;0.17;0.17;;;27.70;99.90;;;;;;4976495;28;20121;-80
2023/04/28 12:17:41;;;;;;;0.05;0.05;;;27.10;99.90;;;;;;4975887;28;20452;-81
2023/04/28 12:20:08;;;;;;;0.10;0.10;;;27.20;99.90;;;;;;4976389;28;20027;-80
2023/04/28 12:22:49;;;;;;;0.00;0.00;;;26.60;99.90;;;;;;4976826;28;20117;-80
2023/04/28 12:25:16;;;;;;;0.30;0.30;;;26.40;99.90;;;;;;4976201;28;20031;-80
2023/04/28 12:28:02;;;;;;;0.05;0.03;;;26.20;99.90;;;;;;4977041;28;20023;-81
2023/04/28 12:30:29;;;;;;;0.10;0.10;;;26.20;99.90;;;;;;4976197;28;20037;-80
2023/04/28 12:32:56;;;;;;;0.00;0.00;;;26.60;99.90;;;;;;4975969;28;20061;-80
2023/04/28 12:35:23;;;;;;;0.10;0.10;;;26.80;99.90;;;;;;4975512;28;20030;-81
2023/04/28 12:37:49;;;;;;;0.35;0.13;;;26.90;99.90;;;;;;4975925;28;20178;-80
2023/04/28 12:40:14;;;;;;;0.00;0.00;;;27.20;99.90;;;;;;4976135;28;20130;-81
2023/04/28 12:42:40;;;;;;;0.38;0.38;;;27.10;99.90;;;;;;4976767;28;20034;-81
2023/04/28 12:45:08;;;;;;;0.08;0.08;;;27.10;99.90;;;;;;4975941;28;20089;-81
2023/04/28 12:47:33;;;;;;;0.20;0.20;;;27.40;99.90;;;;;;4991463;28;20493;-81